< < Back
Terminal Aerodrome Forecast


Current Version              Previous Versions:   1  2  3  4  5  6  7  8  9  

Terminal Aerodrome Forecast

055
FTUS42 KTAE 291120
TAFTLH
TAF
KTLH 291120Z 2912/3012 00000KT P6SM FEW080 SCT250
     FM291400 36006KT P6SM SCT060
     FM300100 00000KT P6SM SCT250=

Latest METAR

535
SAUS80 KWBC 301200 RRA
MTRTLH
METAR KTLH 301153Z 00000KT 10SM FEW250 23/19 A3001 RMK AO2 SLP160
T02330194 10233 20206 53008


USA.gov is the U.S. government's official web portal to all federal, state and local government web resources and services.